createdAt,value
2018-12-30T00:01:23.514Z,16.03
2018-12-30T00:04:01.108Z,16.90
2018-12-30T00:06:35.300Z,17.02
2018-12-30T00:09:10.504Z,17.50
2018-12-30T00:11:43.862Z,17.20
2018-12-30T00:14:18.912Z,17.20
2018-12-30T00:16:52.897Z,18.37
2018-12-30T00:19:25.081Z,16.70
2018-12-30T00:21:56.998Z,17.60
2018-12-30T00:24:28.967Z,17.50
2018-12-30T00:27:01.151Z,15.97
2018-12-30T00:29:37.527Z,17.00
2018-12-30T00:32:11.870Z,17.67
2018-12-30T00:34:44.556Z,16.87
2018-12-30T00:37:18.095Z,16.00
2018-12-30T00:39:49.982Z,16.00
2018-12-30T00:42:22.008Z,18.00
2018-12-30T00:44:55.466Z,16.83
2018-12-30T00:47:30.752Z,16.70
2018-12-30T00:50:05.181Z,16.90
2018-12-30T00:52:39.024Z,16.47
2018-12-30T00:55:15.712Z,16.57
2018-12-30T00:57:48.898Z,17.55
2018-12-30T01:00:22.038Z,17.17
2018-12-30T01:02:56.984Z,15.90
2018-12-30T01:05:37.964Z,16.20
2018-12-30T01:08:15.902Z,15.63
2018-12-30T01:10:48.257Z,16.17
2018-12-30T01:13:24.669Z,15.92
2018-12-30T01:15:58.257Z,15.57
2018-12-30T01:18:29.965Z,15.07
2018-12-30T01:21:03.724Z,15.60
2018-12-30T01:23:36.395Z,17.48
2018-12-30T01:26:10.001Z,14.20
2018-12-30T01:28:42.487Z,14.80
2018-12-30T01:31:15.791Z,15.30
2018-12-30T01:33:47.698Z,16.93
2018-12-30T01:36:23.697Z,15.97
2018-12-30T01:38:56.527Z,13.87
2018-12-30T01:41:28.902Z,14.65
2018-12-30T01:44:02.112Z,14.73
2018-12-30T01:46:45.627Z,14.53
2018-12-30T01:49:23.442Z,15.63
2018-12-30T01:51:58.156Z,14.43
2018-12-30T01:54:35.253Z,15.50
2018-12-30T01:57:18.172Z,14.37
2018-12-30T01:59:53.379Z,15.40
2018-12-30T02:02:25.603Z,15.60
2018-12-30T02:05:03.889Z,12.87
2018-12-30T02:07:39.636Z,12.57
2018-12-30T02:10:11.913Z,13.57
2018-12-30T02:12:43.921Z,14.05
2018-12-30T02:15:16.165Z,14.77
2018-12-30T02:17:48.672Z,15.60
2018-12-30T02:20:20.604Z,14.33
2018-12-30T02:22:53.445Z,12.77
2018-12-30T02:25:25.723Z,13.17
2018-12-30T02:27:57.406Z,13.23
2018-12-30T02:30:29.235Z,14.50
2018-12-30T02:33:01.567Z,13.77
2018-12-30T02:35:33.354Z,12.67
2018-12-30T02:38:05.435Z,13.20
2018-12-30T02:40:37.702Z,13.40
2018-12-30T02:43:09.462Z,12.97
2018-12-30T02:45:41.143Z,13.67
2018-12-30T02:48:12.995Z,15.50
2018-12-30T02:50:45.712Z,14.60
2018-12-30T02:53:18.381Z,16.00
2018-12-30T02:55:50.052Z,13.37
2018-12-30T02:58:21.693Z,14.50
2018-12-30T03:00:53.857Z,13.00
2018-12-30T03:03:25.468Z,14.30
2018-12-30T03:05:57.596Z,14.47
2018-12-30T03:08:29.300Z,13.03
2018-12-30T03:11:01.205Z,13.27
2018-12-30T03:13:32.779Z,12.60
2018-12-30T03:16:04.422Z,13.40
2018-12-30T03:18:36.042Z,14.13
2018-12-30T03:21:08.758Z,12.80
2018-12-30T03:23:40.397Z,12.97
2018-12-30T03:26:12.168Z,13.78
2018-12-30T03:28:43.818Z,13.13
2018-12-30T03:31:16.123Z,12.28
2018-12-30T03:33:47.845Z,12.17
2018-12-30T03:36:20.165Z,12.97
2018-12-30T03:38:51.866Z,11.47
2018-12-30T03:41:23.560Z,13.03
2018-12-30T03:43:55.230Z,12.83
2018-12-30T03:46:26.871Z,11.40
2018-12-30T03:48:59.717Z,12.30
2018-12-30T03:51:32.007Z,11.78
2018-12-30T03:54:04.373Z,12.40
2018-12-30T03:56:36.142Z,11.00
2018-12-30T03:59:07.812Z,11.70
2018-12-30T04:01:39.405Z,12.17
2018-12-30T04:04:11.066Z,11.43
2018-12-30T04:06:42.778Z,11.33
2018-12-30T04:09:14.800Z,12.30
2018-12-30T04:11:46.505Z,12.47
2018-12-30T04:14:18.213Z,12.30
2018-12-30T04:16:49.894Z,11.60
2018-12-30T04:19:21.510Z,12.03
2018-12-30T04:21:53.926Z,11.27
2018-12-30T04:24:26.299Z,12.58
2018-12-30T04:26:57.948Z,11.80
2018-12-30T04:29:29.587Z,13.20
2018-12-30T04:32:01.424Z,11.87
2018-12-30T04:34:33.094Z,11.70
2018-12-30T04:37:04.716Z,12.73
2018-12-30T04:39:36.993Z,12.43
2018-12-30T04:42:08.632Z,12.30
2018-12-30T04:44:40.190Z,11.37
2018-12-30T04:47:11.805Z,11.57
2018-12-30T04:49:43.411Z,11.07
2018-12-30T04:52:15.397Z,12.40
2018-12-30T04:54:47.669Z,10.83
2018-12-30T04:57:19.979Z,10.47
2018-12-30T04:59:51.897Z,12.70
2018-12-30T05:02:23.538Z,12.63
2018-12-30T05:04:55.384Z,11.57
2018-12-30T05:07:27.198Z,10.60
2018-12-30T05:09:58.812Z,11.07
2018-12-30T05:12:31.075Z,12.23
2018-12-30T05:15:02.985Z,12.53
2018-12-30T05:17:35.349Z,11.67
2018-12-30T05:20:07.195Z,12.87
2018-12-30T05:22:38.818Z,11.33
2018-12-30T05:25:10.492Z,11.07
2018-12-30T05:27:42.774Z,10.67
2018-12-30T05:30:14.793Z,13.07
2018-12-30T05:32:46.410Z,11.90
2018-12-30T05:35:18.080Z,10.97
2018-12-30T05:37:49.725Z,10.83
2018-12-30T05:40:22.514Z,10.30
2018-12-30T05:42:54.873Z,10.25
2018-12-30T05:45:26.967Z,11.03
2018-12-30T05:47:59.007Z,10.20
2018-12-30T05:50:30.634Z,11.90
2018-12-30T05:53:02.247Z,9.87
2018-12-30T05:55:33.883Z,10.47
2018-12-30T05:58:06.282Z,10.57
2018-12-30T06:00:37.938Z,9.55
2018-12-30T06:03:09.803Z,10.47
2018-12-30T06:05:42.552Z,10.73
2018-12-30T06:08:14.153Z,10.77
2018-12-30T06:10:45.899Z,10.57
2018-12-30T06:13:17.754Z,10.70
2018-12-30T06:15:49.476Z,10.13
2018-12-30T06:18:21.079Z,10.97
2018-12-30T06:20:53.027Z,11.20
2018-12-30T06:23:25.196Z,9.80
2018-12-30T06:25:56.843Z,9.40
2018-12-30T06:28:28.451Z,10.17
2018-12-30T06:31:00.308Z,10.40
2018-12-30T06:33:32.681Z,10.35
2018-12-30T06:36:04.380Z,10.27
2018-12-30T06:38:35.989Z,9.00
2018-12-30T06:41:07.615Z,10.70
2018-12-30T06:43:39.395Z,11.13
2018-12-30T06:46:11.145Z,9.77
2018-12-30T06:48:42.779Z,10.60
2018-12-30T06:51:14.644Z,10.83
2018-12-30T06:53:46.301Z,10.18
2018-12-30T06:56:18.097Z,11.50
2018-12-30T06:58:50.064Z,10.07
2018-12-30T07:01:22.218Z,9.97
2018-12-30T07:03:54.134Z,10.50
2018-12-30T07:06:26.629Z,10.18
2018-12-30T07:08:58.223Z,10.23
2018-12-30T07:11:31.001Z,10.00
2018-12-30T07:14:02.622Z,9.30
2018-12-30T07:16:34.674Z,10.40
2018-12-30T07:19:06.345Z,10.23
2018-12-30T07:21:38.001Z,10.50
2018-12-30T07:24:09.830Z,10.17
2018-12-30T07:26:41.802Z,9.10
2018-12-30T07:29:13.431Z,11.33
2018-12-30T07:31:45.297Z,11.17
2018-12-30T07:34:16.967Z,11.00
2018-12-30T07:36:48.696Z,9.83
2018-12-30T07:39:21.565Z,10.53
2018-12-30T07:41:53.227Z,10.20
2018-12-30T07:44:24.882Z,10.10
2018-12-30T07:46:56.541Z,10.33
2018-12-30T07:49:28.461Z,10.10
2018-12-30T07:52:00.340Z,10.43
2018-12-30T07:54:32.043Z,10.00
2018-12-30T07:57:03.708Z,10.10
2018-12-30T07:59:35.973Z,9.18
2018-12-30T08:02:08.125Z,11.20
2018-12-30T08:04:40.040Z,10.60
2018-12-30T08:07:12.444Z,10.50
2018-12-30T08:09:45.574Z,9.38
2018-12-30T08:12:18.817Z,10.53
2018-12-30T08:14:50.810Z,11.47
2018-12-30T08:17:22.582Z,9.55
2018-12-30T08:19:54.362Z,10.70
2018-12-30T08:22:26.166Z,9.50
2018-12-30T08:24:57.820Z,9.50
2018-12-30T08:27:29.650Z,10.60
2018-12-30T08:30:01.635Z,9.70
2018-12-30T08:32:33.668Z,10.17
2018-12-30T08:35:05.408Z,11.00
2018-12-30T08:37:37.147Z,10.40
2018-12-30T08:40:09.315Z,10.43
2018-12-30T08:42:41.131Z,9.67
2018-12-30T08:45:12.921Z,11.40
2018-12-30T08:47:45.729Z,10.07
2018-12-30T08:50:18.098Z,10.50
2018-12-30T08:52:49.843Z,10.43
2018-12-30T08:55:25.971Z,8.43
2018-12-30T08:57:58.523Z,9.00
2018-12-30T09:00:30.379Z,9.73
2018-12-30T09:03:02.201Z,9.37
2018-12-30T09:05:33.869Z,10.07
2018-12-30T09:08:05.831Z,9.70
2018-12-30T09:10:47.995Z,8.70
2018-12-30T09:13:24.788Z,9.97
2018-12-30T09:16:00.423Z,10.17
2018-12-30T09:18:32.128Z,10.50
2018-12-30T09:21:12.325Z,10.43
2018-12-30T09:24:03.736Z,10.83
2018-12-30T09:26:42.869Z,10.10
2018-12-30T09:29:20.852Z,9.27
2018-12-30T09:31:58.556Z,10.82
2018-12-30T09:34:45.292Z,11.13
2018-12-30T09:37:18.763Z,9.07
2018-12-30T09:39:59.801Z,10.57
2018-12-30T09:42:34.563Z,9.40
2018-12-30T09:45:06.910Z,9.33
2018-12-30T09:47:39.811Z,10.07
2018-12-30T09:50:11.779Z,8.90
2018-12-30T09:52:43.862Z,8.73
2018-12-30T09:55:16.073Z,9.33
2018-12-30T09:57:48.263Z,8.43
2018-12-30T10:00:20.471Z,9.80
2018-12-30T10:02:52.337Z,8.70
2018-12-30T10:05:25.911Z,9.67
2018-12-30T10:07:57.994Z,8.60
2018-12-30T10:10:30.880Z,9.60
2018-12-30T10:13:03.259Z,9.80
2018-12-30T10:15:35.281Z,9.50
2018-12-30T10:18:06.964Z,10.10
2018-12-30T10:20:38.644Z,8.60
2018-12-30T10:23:10.443Z,9.27
2018-12-30T10:25:42.473Z,9.57
2018-12-30T10:28:14.620Z,10.37
2018-12-30T10:30:47.283Z,10.00
2018-12-30T10:33:19.779Z,10.50
2018-12-30T10:35:53.085Z,9.10
2018-12-30T10:38:25.458Z,9.90
2018-12-30T10:40:57.370Z,10.40
2018-12-30T10:43:30.197Z,8.03
2018-12-30T10:46:01.878Z,10.53
2018-12-30T10:48:33.595Z,8.13
2018-12-30T10:51:05.337Z,9.37
2018-12-30T10:53:38.153Z,9.77
2018-12-30T10:56:09.914Z,10.03
2018-12-30T10:58:52.354Z,9.67
2018-12-30T11:01:24.209Z,8.47
2018-12-30T11:03:56.067Z,8.33
2018-12-30T11:06:28.068Z,9.13
2018-12-30T11:09:00.135Z,9.07
2018-12-30T11:11:31.990Z,9.57
2018-12-30T11:14:03.894Z,9.60
2018-12-30T11:16:35.656Z,9.90
2018-12-30T11:19:07.712Z,9.17
2018-12-30T11:21:39.424Z,8.77
2018-12-30T11:24:11.182Z,8.67
2018-12-30T11:26:44.319Z,8.76
2018-12-30T11:29:16.519Z,8.90
2018-12-30T11:31:49.495Z,9.55
2018-12-30T11:34:21.470Z,8.87
2018-12-30T11:36:53.222Z,8.83
2018-12-30T11:39:25.010Z,8.80
2018-12-30T11:41:58.467Z,9.10
2018-12-30T11:44:30.559Z,8.70
2018-12-30T11:47:02.373Z,8.20
2018-12-30T11:49:34.267Z,7.90
2018-12-30T11:52:05.994Z,9.10
2018-12-30T11:54:37.747Z,8.80
2018-12-30T11:57:09.386Z,8.50
2018-12-30T11:59:41.693Z,8.30
2018-12-30T12:02:13.484Z,7.90
2018-12-30T12:04:46.735Z,9.57
2018-12-30T12:07:19.349Z,8.57
2018-12-30T12:09:51.142Z,9.10
2018-12-30T12:12:22.956Z,8.70
2018-12-30T12:14:54.888Z,9.93
2018-12-30T12:17:27.559Z,10.18
2018-12-30T12:19:59.403Z,8.60
2018-12-30T12:22:31.554Z,7.90
2018-12-30T12:25:03.556Z,8.47
2018-12-30T12:27:37.735Z,9.23
2018-12-30T12:30:13.419Z,9.70
2018-12-30T12:32:52.145Z,10.37
2018-12-30T12:35:24.439Z,8.93
2018-12-30T12:37:57.042Z,10.10
2018-12-30T12:40:29.127Z,9.08
2018-12-30T12:43:00.881Z,8.70
2018-12-30T12:45:34.248Z,9.47
2018-12-30T12:48:06.264Z,8.40
2018-12-30T12:50:38.426Z,9.67
2018-12-30T12:53:10.355Z,8.58
2018-12-30T12:55:42.928Z,8.13
2018-12-30T12:58:18.150Z,8.80
2018-12-30T13:00:50.405Z,8.80
2018-12-30T13:03:22.203Z,8.57
2018-12-30T13:05:54.299Z,9.27
2018-12-30T13:08:26.138Z,8.97
2018-12-30T13:10:58.816Z,8.90
2018-12-30T13:13:32.577Z,8.00
2018-12-30T13:16:05.052Z,9.38
2018-12-30T13:18:37.048Z,8.53
2018-12-30T13:21:10.325Z,9.18
2018-12-30T13:23:43.761Z,9.77
2018-12-30T13:26:15.446Z,8.97
2018-12-30T13:28:48.398Z,8.25
2018-12-30T13:31:20.095Z,8.60
2018-12-30T13:33:52.679Z,8.17
2018-12-30T13:36:25.843Z,6.70
2018-12-30T13:38:57.975Z,8.07
2018-12-30T13:41:30.538Z,8.10
2018-12-30T13:44:02.538Z,8.00
2018-12-30T13:46:34.804Z,7.47
2018-12-30T13:49:07.769Z,8.67
2018-12-30T13:51:39.790Z,7.70
2018-12-30T13:54:11.504Z,7.10
2018-12-30T13:56:43.247Z,7.87
2018-12-30T13:59:15.077Z,8.60
2018-12-30T14:01:46.865Z,7.60
2018-12-30T14:04:18.651Z,7.43
2018-12-30T14:06:51.293Z,6.65
2018-12-30T14:09:23.191Z,7.50
2018-12-30T14:11:56.128Z,6.95
2018-12-30T14:14:28.103Z,6.60
2018-12-30T14:16:59.833Z,7.30
2018-12-30T14:19:31.524Z,7.33
2018-12-30T14:22:04.173Z,7.30
2018-12-30T14:24:36.095Z,7.93
2018-12-30T14:27:09.794Z,6.73
2018-12-30T14:29:41.813Z,6.73
2018-12-30T14:32:15.558Z,7.07
2018-12-30T14:34:47.350Z,7.60
2018-12-30T14:37:19.851Z,8.27
2018-12-30T14:39:51.638Z,7.90
2018-12-30T14:42:23.429Z,7.57
2018-12-30T14:44:55.153Z,6.87
2018-12-30T14:47:27.114Z,7.20
2018-12-30T14:49:58.801Z,7.05
2018-12-30T14:52:32.961Z,6.87
2018-12-30T14:55:04.830Z,8.20
2018-12-30T14:57:36.594Z,7.40
2018-12-30T15:00:09.807Z,8.37
2018-12-30T15:02:41.829Z,7.33
2018-12-30T15:05:13.849Z,7.55
2018-12-30T15:07:45.092Z,8.90
2018-12-30T15:10:14.360Z,8.10
2018-12-30T15:12:46.098Z,8.70
2018-12-30T15:15:17.893Z,7.50
2018-12-30T15:17:50.831Z,7.83
2018-12-30T15:20:22.507Z,7.43
2018-12-30T15:22:54.564Z,8.05
2018-12-30T15:25:27.991Z,7.80
2018-12-30T15:28:00.279Z,7.45
2018-12-30T15:30:32.024Z,8.03
2018-12-30T15:33:03.723Z,8.83
2018-12-30T15:35:35.701Z,9.17
2018-12-30T15:38:07.812Z,8.57
2018-12-30T15:40:42.010Z,9.20
2018-12-30T15:43:14.277Z,8.80
2018-12-30T15:45:46.019Z,9.03
2018-12-30T15:48:17.802Z,9.33
2018-12-30T15:50:50.015Z,9.00
2018-12-30T15:53:21.776Z,8.60
2018-12-30T15:55:54.019Z,8.77
2018-12-30T15:58:28.345Z,7.80
2018-12-30T16:01:00.452Z,8.27
2018-12-30T16:03:32.367Z,8.70
2018-12-30T16:06:04.284Z,9.93
2018-12-30T16:08:35.991Z,10.18
2018-12-30T16:11:07.983Z,9.50
2018-12-30T16:13:41.006Z,9.70
2018-12-30T16:16:12.712Z,9.30
2018-12-30T16:18:44.480Z,7.53
2018-12-30T16:21:16.510Z,9.87
2018-12-30T16:23:48.809Z,8.90
2018-12-30T16:26:20.606Z,9.40
2018-12-30T16:28:52.251Z,8.50
2018-12-30T16:31:28.242Z,9.03
2018-12-30T16:33:59.303Z,8.80
2018-12-30T16:36:31.408Z,9.60
2018-12-30T16:39:03.779Z,9.27
2018-12-30T16:41:35.562Z,8.53
2018-12-30T16:44:07.292Z,8.60
2018-12-30T16:46:39.896Z,8.27
2018-12-30T16:49:11.755Z,8.20
2018-12-30T16:51:43.973Z,8.90
2018-12-30T16:54:15.867Z,10.45
2018-12-30T16:56:47.818Z,9.27
2018-12-30T16:59:19.885Z,9.47
2018-12-30T17:01:52.715Z,8.73
2018-12-30T17:04:24.619Z,9.43
2018-12-30T17:06:57.219Z,8.88
2018-12-30T17:09:29.454Z,8.90
2018-12-30T17:12:01.479Z,8.93
2018-12-30T17:14:35.058Z,9.00
2018-12-30T17:17:07.469Z,8.97
2018-12-30T17:19:39.240Z,8.57
2018-12-30T17:22:11.071Z,8.20
2018-12-30T17:24:43.276Z,9.43
2018-12-30T17:27:15.202Z,8.60
2018-12-30T17:29:47.039Z,9.37
2018-12-30T17:32:19.022Z,10.83
2018-12-30T17:34:51.207Z,9.80
2018-12-30T17:37:23.695Z,10.87
2018-12-30T17:39:55.602Z,10.90
2018-12-30T17:42:27.413Z,9.07
2018-12-30T17:44:59.279Z,10.30
2018-12-30T17:47:31.142Z,11.17
2018-12-30T17:50:03.660Z,10.47
2018-12-30T17:52:37.164Z,10.57
2018-12-30T17:55:10.409Z,10.00
2018-12-30T17:57:42.178Z,9.30
2018-12-30T18:00:14.081Z,11.13
2018-12-30T18:02:46.132Z,9.27
2018-12-30T18:05:18.822Z,10.00
2018-12-30T18:07:50.881Z,9.40
2018-12-30T18:10:24.603Z,9.40
2018-12-30T18:12:59.162Z,9.87
2018-12-30T18:15:31.062Z,9.73
2018-12-30T18:18:03.038Z,9.67
2018-12-30T18:20:36.680Z,9.27
2018-12-30T18:23:08.406Z,9.20
2018-12-30T18:25:40.243Z,8.90
2018-12-30T18:28:11.981Z,11.23
2018-12-30T18:30:43.905Z,10.40
2018-12-30T18:33:17.475Z,9.07
2018-12-30T18:35:50.060Z,10.57
2018-12-30T18:38:21.768Z,8.43
2018-12-30T18:40:53.659Z,9.60
2018-12-30T18:43:26.734Z,9.03
2018-12-30T18:45:58.605Z,7.83
2018-12-30T18:48:30.690Z,8.83
2018-12-30T18:51:02.475Z,9.03
2018-12-30T18:53:34.813Z,10.07
2018-12-30T18:56:07.197Z,9.90
2018-12-30T18:58:39.490Z,9.67
2018-12-30T19:01:11.509Z,10.30
2018-12-30T19:03:43.588Z,10.43
2018-12-30T19:06:15.778Z,8.90
2018-12-30T19:08:48.731Z,9.53
2018-12-30T19:11:21.054Z,10.60
2018-12-30T19:13:54.448Z,9.10
2018-12-30T19:16:27.476Z,9.00
2018-12-30T19:18:59.356Z,8.67
2018-12-30T19:21:35.823Z,9.43
2018-12-30T19:24:08.573Z,8.70
2018-12-30T19:26:40.473Z,8.70
2018-12-30T19:29:12.264Z,8.93
2018-12-30T19:31:43.973Z,8.55
2018-12-30T19:34:15.952Z,9.30
2018-12-30T19:36:47.743Z,9.97
2018-12-30T19:39:22.361Z,8.70
2018-12-30T19:41:55.667Z,8.90
2018-12-30T19:44:27.664Z,8.70
2018-12-30T19:47:01.015Z,7.80
2018-12-30T19:49:33.455Z,8.73
2018-12-30T19:52:06.932Z,8.20
2018-12-30T19:54:39.741Z,8.70
2018-12-30T19:57:12.118Z,8.60
2018-12-30T19:59:44.077Z,8.93
2018-12-30T20:02:15.902Z,8.80
2018-12-30T20:04:47.777Z,9.27
2018-12-30T20:07:21.174Z,9.30
2018-12-30T20:09:53.239Z,9.40
2018-12-30T20:12:25.805Z,8.77
2018-12-30T20:14:57.836Z,8.93
2018-12-30T20:17:29.615Z,9.57
2018-12-30T20:20:02.306Z,10.33
2018-12-30T20:22:37.117Z,9.07
2018-12-30T20:25:09.127Z,8.45
2018-12-30T20:27:41.527Z,8.50
2018-12-30T20:30:13.418Z,9.53
2018-12-30T20:32:54.237Z,8.37
2018-12-30T20:35:31.062Z,9.60
2018-12-30T20:38:03.366Z,8.80
2018-12-30T20:40:35.550Z,8.97
2018-12-30T20:43:07.921Z,8.33
2018-12-30T20:45:42.666Z,8.67
2018-12-30T20:48:14.654Z,8.30
2018-12-30T20:50:51.148Z,10.60
2018-12-30T20:53:26.741Z,9.33
2018-12-30T20:55:58.587Z,8.13
2018-12-30T20:58:32.010Z,8.83
2018-12-30T21:01:06.399Z,8.87
2018-12-30T21:03:41.176Z,9.57
2018-12-30T21:06:21.264Z,8.30
2018-12-30T21:08:57.129Z,9.20
2018-12-30T21:11:29.397Z,8.95
2018-12-30T21:14:02.295Z,9.00
2018-12-30T21:16:34.094Z,8.90
2018-12-30T21:19:06.273Z,8.83
2018-12-30T21:21:38.858Z,9.13
2018-12-30T21:24:20.959Z,10.33
2018-12-30T21:26:52.682Z,9.70
2018-12-30T21:29:25.143Z,10.20
2018-12-30T21:31:57.399Z,9.13
2018-12-30T21:34:29.412Z,9.70
2018-12-30T21:37:01.803Z,9.60
2018-12-30T21:39:33.887Z,8.90
2018-12-30T21:42:07.117Z,9.00
2018-12-30T21:44:39.799Z,10.07
2018-12-30T21:47:11.665Z,10.80
2018-12-30T21:49:43.725Z,9.60
2018-12-30T21:52:15.693Z,9.17
2018-12-30T21:54:47.627Z,9.45
2018-12-30T21:57:19.560Z,8.90
2018-12-30T21:59:55.407Z,10.00
2018-12-30T22:02:27.232Z,9.77
2018-12-30T22:05:01.942Z,9.00
2018-12-30T22:07:37.224Z,10.30
2018-12-30T22:10:17.292Z,8.87
2018-12-30T22:12:46.478Z,8.90
2018-12-30T22:15:19.559Z,9.10
2018-12-30T22:17:51.443Z,9.80
2018-12-30T22:20:25.300Z,9.73
2018-12-30T22:22:59.277Z,8.27
2018-12-30T22:25:36.295Z,8.93
2018-12-30T22:28:08.958Z,9.45
2018-12-30T22:30:43.159Z,9.70
2018-12-30T22:33:18.633Z,9.20
2018-12-30T22:35:51.366Z,9.58
2018-12-30T22:38:23.420Z,10.77
2018-12-30T22:40:55.157Z,9.60
2018-12-30T22:43:27.073Z,8.93
2018-12-30T22:46:02.619Z,9.73
2018-12-30T22:48:34.426Z,9.50
2018-12-30T22:51:07.505Z,8.73
2018-12-30T22:53:39.264Z,9.70
2018-12-30T22:56:11.363Z,10.30
2018-12-30T22:58:48.582Z,9.50
2018-12-30T23:01:25.388Z,9.40
2018-12-30T23:03:57.422Z,9.80
2018-12-30T23:06:29.604Z,9.13
2018-12-30T23:09:01.791Z,8.97
2018-12-30T23:11:42.398Z,9.17
2018-12-30T23:14:15.589Z,9.10
2018-12-30T23:16:47.567Z,9.40
2018-12-30T23:19:24.335Z,8.60
2018-12-30T23:22:00.774Z,8.57
2018-12-30T23:24:32.460Z,8.80
2018-12-30T23:27:04.260Z,8.77
2018-12-30T23:29:36.087Z,8.63
2018-12-30T23:32:08.931Z,9.23
2018-12-30T23:34:42.951Z,8.57
2018-12-30T23:37:15.167Z,8.37
2018-12-30T23:39:47.263Z,9.23
2018-12-30T23:42:20.565Z,7.73
2018-12-30T23:44:59.142Z,8.70
2018-12-30T23:47:33.050Z,8.50
2018-12-30T23:50:05.172Z,7.77
2018-12-30T23:52:37.351Z,8.13
2018-12-30T23:55:10.751Z,7.60
2018-12-30T23:57:42.939Z,7.93
